createdAt,value
2023-05-19T00:02:45.504Z,12.67
2023-05-19T00:07:48.113Z,12.65
2023-05-19T00:12:50.526Z,12.61
2023-05-19T00:17:55.243Z,12.57
2023-05-19T00:22:56.736Z,12.49
2023-05-19T00:27:59.220Z,12.43
2023-05-19T00:33:01.034Z,12.41
2023-05-19T00:38:02.523Z,12.40
2023-05-19T00:43:05.569Z,12.33
2023-05-19T00:48:07.113Z,12.23
2023-05-19T00:53:09.020Z,12.14
2023-05-19T00:58:12.170Z,12.02
2023-05-19T01:03:15.141Z,11.96
2023-05-19T01:08:17.112Z,11.87
2023-05-19T01:13:18.622Z,11.75
2023-05-19T01:18:29.679Z,11.65
2023-05-19T01:23:57.128Z,11.59
2023-05-19T01:29:29.329Z,11.46
2023-05-19T01:34:31.792Z,11.41
2023-05-19T01:39:33.443Z,11.40
2023-05-19T01:44:35.242Z,11.39
2023-05-19T01:49:36.743Z,11.37
2023-05-19T01:54:38.222Z,11.36
2023-05-19T01:59:52.063Z,11.35
2023-05-19T02:05:04.258Z,11.31
2023-05-19T02:10:10.649Z,11.28
2023-05-19T02:15:26.050Z,11.29
2023-05-19T02:20:27.521Z,11.27
2023-05-19T02:25:29.043Z,11.26
2023-05-19T02:30:31.922Z,11.20
2023-05-19T02:35:33.873Z,11.17
2023-05-19T02:40:35.439Z,11.13
2023-05-19T02:45:36.882Z,11.07
2023-05-19T02:50:38.582Z,11.00
2023-05-19T02:55:39.978Z,10.96
2023-05-19T03:00:41.451Z,10.96
2023-05-19T03:05:43.717Z,10.94
2023-05-19T03:10:46.682Z,10.91
2023-05-19T03:15:48.905Z,10.88
2023-05-19T03:20:50.831Z,10.82
2023-05-19T03:25:54.202Z,10.82
2023-05-19T03:30:55.750Z,10.80
2023-05-19T03:35:57.682Z,10.79
2023-05-19T03:40:59.204Z,10.79
2023-05-19T03:46:00.866Z,10.73
2023-05-19T03:51:02.401Z,10.61
2023-05-19T03:56:04.056Z,10.62
2023-05-19T04:01:05.531Z,10.64
2023-05-19T04:06:08.024Z,10.71
2023-05-19T04:11:09.543Z,10.72
2023-05-19T04:16:11.203Z,10.70
2023-05-19T04:21:12.678Z,10.73
2023-05-19T04:26:17.934Z,10.76
2023-05-19T04:31:21.627Z,10.86
2023-05-19T04:36:23.937Z,10.88
2023-05-19T04:41:25.382Z,10.95
2023-05-19T04:46:29.886Z,11.05
2023-05-19T04:51:31.670Z,11.15
2023-05-19T04:56:33.267Z,11.21
2023-05-19T05:01:34.684Z,11.29
2023-05-19T05:06:38.281Z,11.38
2023-05-19T05:11:40.036Z,11.40
2023-05-19T05:16:42.426Z,11.39
2023-05-19T05:21:44.211Z,11.47
2023-05-19T05:26:46.002Z,11.58
2023-05-19T05:31:47.382Z,11.70
2023-05-19T05:36:49.031Z,11.77
2023-05-19T05:41:50.702Z,11.95
2023-05-19T05:46:52.707Z,12.07
2023-05-19T05:52:04.820Z,12.19
2023-05-19T05:57:08.215Z,12.39
2023-05-19T06:02:09.656Z,12.55
2023-05-19T06:07:11.070Z,12.76
2023-05-19T06:12:12.629Z,13.01
2023-05-19T06:17:14.071Z,13.16
2023-05-19T06:22:15.598Z,13.36
2023-05-19T06:27:17.074Z,13.53
2023-05-19T06:32:18.546Z,13.70
2023-05-19T06:37:25.414Z,13.82
2023-05-19T06:42:26.896Z,14.13
2023-05-19T06:47:28.424Z,14.34
2023-05-19T06:52:29.827Z,14.45
2023-05-19T06:57:31.343Z,14.64
2023-05-19T07:02:32.893Z,14.78
2023-05-19T07:07:35.566Z,14.90
2023-05-19T07:12:36.994Z,14.99
2023-05-19T07:17:38.613Z,15.21
2023-05-19T07:22:40.201Z,15.36
2023-05-19T07:27:41.861Z,15.52
2023-05-19T07:32:43.446Z,15.64
2023-05-19T07:37:44.946Z,15.82
2023-05-19T07:42:46.368Z,15.98
2023-05-19T07:47:48.056Z,16.28
2023-05-19T07:52:49.473Z,16.56
2023-05-19T07:57:50.943Z,16.68
2023-05-19T08:02:53.182Z,16.79
2023-05-19T08:07:54.764Z,17.08
2023-05-19T08:12:56.176Z,17.33
2023-05-19T08:17:57.642Z,17.52
2023-05-19T08:22:59.398Z,17.73
2023-05-19T08:28:01.477Z,17.78
2023-05-19T08:33:03.211Z,17.84
2023-05-19T08:38:04.689Z,17.99
2023-05-19T08:43:06.185Z,18.25
2023-05-19T08:48:08.027Z,18.43
2023-05-19T08:53:31.405Z,18.59
2023-05-19T08:58:33.876Z,18.76
2023-05-19T09:03:39.285Z,19.00
2023-05-19T09:08:42.172Z,19.11
2023-05-19T09:13:43.934Z,19.35
2023-05-19T09:18:58.903Z,19.47
2023-05-19T09:24:07.851Z,19.73
2023-05-19T09:29:16.575Z,20.00
2023-05-19T09:34:18.616Z,20.13
2023-05-19T09:39:22.096Z,20.24
2023-05-19T09:44:28.959Z,20.33
2023-05-19T09:49:32.753Z,20.62
2023-05-19T09:54:34.613Z,20.98
2023-05-19T09:59:38.936Z,21.26
2023-05-19T10:04:42.196Z,21.50
2023-05-19T10:09:44.746Z,21.74
2023-05-19T10:14:48.876Z,21.93
2023-05-19T10:19:54.755Z,22.12
2023-05-19T10:24:56.170Z,22.31
2023-05-19T10:30:01.579Z,22.76
2023-05-19T10:35:16.616Z,22.66
2023-05-19T10:40:55.416Z,22.87
2023-05-19T10:45:58.518Z,23.11
2023-05-19T10:51:00.160Z,23.35
2023-05-19T10:56:03.902Z,23.63
2023-05-19T11:01:33.319Z,23.53
2023-05-19T11:06:38.749Z,23.51
2023-05-19T11:11:51.707Z,23.36
2023-05-19T11:16:57.031Z,23.29
2023-05-19T11:22:12.461Z,23.38
2023-05-19T11:27:20.783Z,23.44
2023-05-19T11:32:26.514Z,23.46
2023-05-19T11:37:32.495Z,23.47
2023-05-19T11:42:36.278Z,23.76
2023-05-19T11:47:50.888Z,23.94
2023-05-19T11:53:01.186Z,24.29
2023-05-19T11:58:05.858Z,24.29
2023-05-19T12:03:09.207Z,24.55
2023-05-19T12:08:13.826Z,24.80
2023-05-19T12:13:15.724Z,25.50
2023-05-19T12:18:17.195Z,25.88
2023-05-19T12:23:18.951Z,26.11
2023-05-19T12:28:20.817Z,26.09
2023-05-19T12:33:23.087Z,26.09
2023-05-19T12:38:24.777Z,26.01
2023-05-19T12:43:26.531Z,25.80
2023-05-19T12:48:30.106Z,25.51
2023-05-19T12:53:33.721Z,25.83
2023-05-19T12:58:35.180Z,26.18
2023-05-19T13:03:41.864Z,26.47
2023-05-19T13:08:44.257Z,26.59
2023-05-19T13:13:45.823Z,26.57
2023-05-19T13:18:47.300Z,26.60
2023-05-19T13:23:49.930Z,27.13
2023-05-19T13:28:53.576Z,27.58
2023-05-19T13:33:55.087Z,27.18
2023-05-19T13:38:56.590Z,27.19
2023-05-19T13:43:59.432Z,27.56
2023-05-19T13:49:02.185Z,27.88
2023-05-19T13:54:03.656Z,28.51
2023-05-19T13:59:05.275Z,28.30
2023-05-19T14:04:07.336Z,28.59
2023-05-19T14:09:09.333Z,28.56
2023-05-19T14:14:11.562Z,28.85
2023-05-19T14:19:13.337Z,28.49
2023-05-19T14:24:14.812Z,28.64
2023-05-19T14:29:16.381Z,28.00
2023-05-19T14:34:17.922Z,27.63
2023-05-19T14:39:19.379Z,28.42
2023-05-19T14:44:20.956Z,29.10
2023-05-19T14:49:22.382Z,28.88
2023-05-19T14:54:23.847Z,29.00
2023-05-19T14:59:25.520Z,28.76
2023-05-19T15:04:27.165Z,28.22
2023-05-19T15:09:28.683Z,27.48
2023-05-19T15:14:31.177Z,27.14
2023-05-19T15:19:33.050Z,26.30
2023-05-19T15:24:34.625Z,25.80
2023-05-19T15:29:36.182Z,25.79
2023-05-19T15:34:37.699Z,25.98
2023-05-19T15:39:39.323Z,25.43
2023-05-19T15:44:40.805Z,25.36
2023-05-19T15:49:42.260Z,25.64
2023-05-19T15:54:44.240Z,25.30
2023-05-19T15:59:45.775Z,24.92
2023-05-19T16:04:47.204Z,24.88
2023-05-19T16:09:49.957Z,25.23
2023-05-19T16:14:53.674Z,25.73
2023-05-19T16:19:55.190Z,26.21
2023-05-19T16:24:56.655Z,26.60
2023-05-19T16:29:58.406Z,26.83
2023-05-19T16:34:59.918Z,27.00
2023-05-19T16:40:01.799Z,27.26
2023-05-19T16:45:03.658Z,27.31
2023-05-19T16:50:05.824Z,27.30
2023-05-19T16:55:07.582Z,27.49
2023-05-19T17:00:09.626Z,27.69
2023-05-19T17:05:11.436Z,28.09
2023-05-19T17:10:13.804Z,28.23
2023-05-19T17:15:15.592Z,28.12
2023-05-19T17:20:17.063Z,28.00
2023-05-19T17:25:18.500Z,27.73
2023-05-19T17:30:20.079Z,27.57
2023-05-19T17:35:22.021Z,26.95
2023-05-19T17:40:23.442Z,26.91
2023-05-19T17:45:25.101Z,27.17
2023-05-19T17:50:26.648Z,27.06
2023-05-19T17:55:30.305Z,27.04
2023-05-19T18:00:33.262Z,26.71
2023-05-19T18:05:35.317Z,26.03
2023-05-19T18:10:38.918Z,25.45
2023-05-19T18:15:40.734Z,24.66
2023-05-19T18:20:44.715Z,24.08
2023-05-19T18:25:51.670Z,23.66
2023-05-19T18:31:04.669Z,23.03
2023-05-19T18:36:06.552Z,22.57
2023-05-19T18:41:09.259Z,22.05
2023-05-19T18:46:11.217Z,21.65
2023-05-19T18:51:15.648Z,21.23
2023-05-19T18:56:27.901Z,20.89
2023-05-19T19:01:29.422Z,20.58
2023-05-19T19:06:31.218Z,20.29
2023-05-19T19:11:32.708Z,20.01
2023-05-19T19:16:34.482Z,19.83
2023-05-19T19:21:35.938Z,19.66
2023-05-19T19:26:37.979Z,19.58
2023-05-19T19:31:39.548Z,19.44
2023-05-19T19:36:41.205Z,19.27
2023-05-19T19:41:42.689Z,19.14
2023-05-19T19:46:44.188Z,19.15
2023-05-19T19:51:45.751Z,19.09
2023-05-19T19:56:47.182Z,19.01
2023-05-19T20:01:48.667Z,18.93
2023-05-19T20:06:50.301Z,18.90
2023-05-19T20:11:51.984Z,18.82
2023-05-19T20:16:53.410Z,18.81
2023-05-19T20:21:55.183Z,18.80
2023-05-19T20:26:56.620Z,18.77
2023-05-19T20:31:58.082Z,18.74
2023-05-19T20:36:59.802Z,18.73
2023-05-19T20:42:01.316Z,18.59
2023-05-19T20:47:04.179Z,18.41
2023-05-19T20:52:05.896Z,18.25
2023-05-19T20:57:09.260Z,18.14
2023-05-19T21:02:11.920Z,17.97
2023-05-19T21:07:13.415Z,17.87
2023-05-19T21:12:16.129Z,17.71
2023-05-19T21:17:19.005Z,17.67
2023-05-19T21:22:20.758Z,17.54
2023-05-19T21:27:22.377Z,17.40
2023-05-19T21:32:23.890Z,17.37
2023-05-19T21:37:25.328Z,17.32
2023-05-19T21:42:27.106Z,17.22
2023-05-19T21:47:28.976Z,17.16
2023-05-19T21:52:31.371Z,17.11
2023-05-19T21:57:32.790Z,17.11
2023-05-19T22:02:34.334Z,17.01
2023-05-19T22:07:36.717Z,17.07
2023-05-19T22:12:38.240Z,16.99
2023-05-19T22:17:39.777Z,16.90
2023-05-19T22:22:41.267Z,16.92
2023-05-19T22:27:42.688Z,16.94
2023-05-19T22:32:44.242Z,16.92
2023-05-19T22:37:45.745Z,16.94
2023-05-19T22:42:47.219Z,16.90
2023-05-19T22:47:50.014Z,16.87
2023-05-19T22:52:51.537Z,16.81
2023-05-19T22:57:53.008Z,16.83
2023-05-19T23:02:54.666Z,16.82
2023-05-19T23:07:56.197Z,16.81
2023-05-19T23:12:57.607Z,16.88
2023-05-19T23:18:01.137Z,16.91
2023-05-19T23:23:02.795Z,16.92
2023-05-19T23:28:04.493Z,16.88
2023-05-19T23:33:05.986Z,16.88
2023-05-19T23:38:07.520Z,16.94
2023-05-19T23:43:08.984Z,16.93
2023-05-19T23:48:11.091Z,16.91
2023-05-19T23:53:12.554Z,16.83
2023-05-19T23:58:15.773Z,16.82
